DLH6PS EGLL-EDDF
Flight info
| Callsign | DLH6PS |
|---|---|
| Flight time | 1h 5m |
| Altitude | 35000 |
| Route | DET L6 DVR UL9 KONAN UL607 SPI T180 NIVNU T847 IMCOM IMCOM1B |
| Aircraft | A20N/M-SDE2E3FGHIRWXY/LB1 |
Departure
| Time | 2026-05-04 13:39 |
|---|---|
| Airport | London Heathrow Airport (EGLL) |
Arrival
| Time | 2026-05-04 14:44 |
|---|---|
| Airport | Frankfurt Main Airport (EDDF) |
| Time | Latitude | Longitude | Altitude | Speed | Heading |
|---|---|---|---|---|---|
| 2026-05-04 13:11 | 51.47038 | -0.44668 | 85 ft | 0 kts | 269° |
| 2026-05-04 13:30 | 51.47038 | -0.44661 | 85 ft | 3 kts | 268° |
| 2026-05-04 13:30 | 51.47040 | -0.44619 | 85 ft | 4 kts | 259° |
| 2026-05-04 13:31 | 51.47048 | -0.44578 | 87 ft | 4 kts | 234° |
| 2026-05-04 13:31 | 51.47064 | -0.44558 | 88 ft | 1 kts | 180° |
| 2026-05-04 13:32 | 51.47062 | -0.44558 | 88 ft | 1 kts | 179° |
| 2026-05-04 13:33 | 51.47058 | -0.44558 | 88 ft | 1 kts | 179° |
| 2026-05-04 13:33 | 51.47054 | -0.44558 | 89 ft | 0 kts | 179° |
| 2026-05-04 13:33 | 51.47052 | -0.44558 | 89 ft | 0 kts | 179° |
| 2026-05-04 13:34 | 51.47034 | -0.44558 | 88 ft | 6 kts | 179° |
| 2026-05-04 13:34 | 51.46968 | -0.44557 | 85 ft | 13 kts | 179° |
| 2026-05-04 13:35 | 51.46918 | -0.44557 | 85 ft | 11 kts | 180° |
| 2026-05-04 13:35 | 51.46740 | -0.44555 | 86 ft | 11 kts | 180° |
| 2026-05-04 13:35 | 51.46686 | -0.44551 | 88 ft | 7 kts | 162° |
| 2026-05-04 13:36 | 51.46667 | -0.44486 | 86 ft | 8 kts | 91° |
| 2026-05-04 13:36 | 51.46665 | -0.44367 | 85 ft | 13 kts | 90° |
| 2026-05-04 13:36 | 51.46667 | -0.44209 | 83 ft | 13 kts | 90° |
| 2026-05-04 13:36 | 51.46667 | -0.44050 | 81 ft | 15 kts | 90° |
| 2026-05-04 13:37 | 51.46669 | -0.43892 | 82 ft | 8 kts | 89° |
| 2026-05-04 13:37 | 51.46643 | -0.43821 | 82 ft | 9 kts | 154° |
| 2026-05-04 13:37 | 51.46561 | -0.43825 | 81 ft | 14 kts | 184° |
| 2026-05-04 13:37 | 51.46499 | -0.43846 | 82 ft | 6 kts | 224° |
| 2026-05-04 13:38 | 51.46495 | -0.43882 | 82 ft | 4 kts | 271° |
| 2026-05-04 13:38 | 51.46493 | -0.44217 | 83 ft | 65 kts | 270° |
| 2026-05-04 13:38 | 51.46491 | -0.45295 | 86 ft | 125 kts | 270° |
| 2026-05-04 13:38 | 51.46484 | -0.46923 | 286 ft | 151 kts | 270° |
| 2026-05-04 13:39 | 51.46459 | -0.48632 | 799 ft | 158 kts | 269° |
| 2026-05-04 13:39 | 51.46433 | -0.50427 | 1466 ft | 163 kts | 270° |
| 2026-05-04 13:39 | 51.46336 | -0.52251 | 2135 ft | 170 kts | 251° |
| 2026-05-04 13:39 | 51.45584 | -0.53798 | 2620 ft | 188 kts | 210° |
| 2026-05-04 13:40 | 51.44283 | -0.54304 | 3060 ft | 205 kts | 174° |
| 2026-05-04 13:40 | 51.42861 | -0.53604 | 3490 ft | 227 kts | 150° |
| 2026-05-04 13:40 | 51.41508 | -0.52086 | 4075 ft | 248 kts | 139° |
| 2026-05-04 13:40 | 51.40196 | -0.50137 | 4809 ft | 264 kts | 135° |
| 2026-05-04 13:41 | 51.38895 | -0.48036 | 5813 ft | 268 kts | 135° |
| 2026-05-04 13:41 | 51.37574 | -0.45896 | 6816 ft | 272 kts | 135° |
| 2026-05-04 13:41 | 51.36266 | -0.43665 | 7772 ft | 277 kts | 125° |
| 2026-05-04 13:42 | 51.35355 | -0.37644 | 9685 ft | 291 kts | 94° |
| 2026-05-04 13:42 | 51.35247 | -0.34362 | 10489 ft | 303 kts | 94° |
| 2026-05-04 13:42 | 51.35130 | -0.30870 | 10873 ft | 326 kts | 94° |
| 2026-05-04 13:42 | 51.34980 | -0.27123 | 11311 ft | 344 kts | 95° |
| 2026-05-04 13:43 | 51.34806 | -0.23279 | 12137 ft | 349 kts | 95° |
| 2026-05-04 13:43 | 51.34617 | -0.19386 | 12998 ft | 353 kts | 95° |
| 2026-05-04 13:43 | 51.34419 | -0.15438 | 13827 ft | 358 kts | 96° |
| 2026-05-04 13:43 | 51.34217 | -0.11448 | 14623 ft | 361 kts | 96° |
| 2026-05-04 13:44 | 51.34013 | -0.07427 | 15440 ft | 364 kts | 96° |
| 2026-05-04 13:44 | 51.33807 | -0.03383 | 16254 ft | 367 kts | 96° |
| 2026-05-04 13:44 | 51.33598 | 0.00703 | 17051 ft | 370 kts | 96° |
| 2026-05-04 13:44 | 51.33385 | 0.04823 | 17730 ft | 374 kts | 96° |
| 2026-05-04 13:45 | 51.33170 | 0.08976 | 17969 ft | 375 kts | 96° |
| 2026-05-04 13:45 | 51.32951 | 0.13145 | 18021 ft | 376 kts | 97° |
| 2026-05-04 13:45 | 51.32732 | 0.17306 | 17996 ft | 375 kts | 97° |
| 2026-05-04 13:45 | 51.32514 | 0.21407 | 17995 ft | 375 kts | 97° |
| 2026-05-04 13:46 | 51.32292 | 0.25571 | 18098 ft | 378 kts | 97° |
| 2026-05-04 13:46 | 51.32066 | 0.29768 | 18734 ft | 380 kts | 97° |
| 2026-05-04 13:46 | 51.31837 | 0.33996 | 19381 ft | 384 kts | 97° |
| 2026-05-04 13:46 | 51.31603 | 0.38282 | 19970 ft | 389 kts | 97° |
| 2026-05-04 13:47 | 51.31366 | 0.42616 | 20573 ft | 393 kts | 97° |
| 2026-05-04 13:47 | 51.31124 | 0.46993 | 21158 ft | 398 kts | 97° |
| 2026-05-04 13:47 | 51.30878 | 0.51416 | 21786 ft | 401 kts | 97° |
| 2026-05-04 13:47 | 51.30628 | 0.55892 | 22375 ft | 406 kts | 97° |
| 2026-05-04 13:48 | 51.30231 | 0.60373 | 22950 ft | 409 kts | 104° |
| 2026-05-04 13:48 | 51.29501 | 0.64770 | 23521 ft | 411 kts | 109° |
| 2026-05-04 13:48 | 51.28685 | 0.69165 | 24027 ft | 414 kts | 109° |
| 2026-05-04 13:48 | 51.27872 | 0.73599 | 24553 ft | 417 kts | 109° |
| 2026-05-04 13:49 | 51.27056 | 0.78061 | 25061 ft | 420 kts | 109° |
| 2026-05-04 13:49 | 51.26232 | 0.82552 | 25554 ft | 422 kts | 109° |
| 2026-05-04 13:49 | 51.25410 | 0.87018 | 26028 ft | 425 kts | 109° |
| 2026-05-04 13:49 | 51.24571 | 0.91559 | 26507 ft | 428 kts | 109° |
| 2026-05-04 13:50 | 51.23725 | 0.96129 | 26970 ft | 430 kts | 109° |
| 2026-05-04 13:50 | 51.22877 | 1.00697 | 27562 ft | 430 kts | 109° |
| 2026-05-04 13:50 | 51.22022 | 1.05290 | 27958 ft | 433 kts | 109° |
| 2026-05-04 13:50 | 51.21159 | 1.09915 | 28380 ft | 436 kts | 109° |
| 2026-05-04 13:51 | 51.20288 | 1.14567 | 28782 ft | 439 kts | 109° |
| 2026-05-04 13:51 | 51.19408 | 1.19257 | 29179 ft | 441 kts | 110° |
| 2026-05-04 13:51 | 51.18525 | 1.23953 | 29560 ft | 444 kts | 110° |
| 2026-05-04 13:51 | 51.17635 | 1.28675 | 29928 ft | 446 kts | 110° |
| 2026-05-04 13:52 | 51.16172 | 1.38313 | 30595 ft | 455 kts | 100° |
| 2026-05-04 13:52 | 51.15899 | 1.43358 | 30905 ft | 459 kts | 97° |
| 2026-05-04 13:52 | 51.15669 | 1.48433 | 31283 ft | 459 kts | 98° |
| 2026-05-04 13:53 | 51.15429 | 1.53518 | 31682 ft | 460 kts | 98° |
| 2026-05-04 13:53 | 51.15184 | 1.58605 | 32089 ft | 459 kts | 98° |
| 2026-05-04 13:53 | 51.14935 | 1.63683 | 32494 ft | 459 kts | 98° |
| 2026-05-04 13:54 | 51.14431 | 1.73806 | 33280 ft | 458 kts | 98° |
| 2026-05-04 13:54 | 51.14179 | 1.78797 | 33669 ft | 458 kts | 99° |
| 2026-05-04 13:54 | 51.13662 | 1.88909 | 34351 ft | 457 kts | 99° |
| 2026-05-04 13:55 | 51.13400 | 1.93967 | 34585 ft | 458 kts | 99° |
| 2026-05-04 13:55 | 51.12869 | 2.04092 | 34990 ft | 458 kts | 99° |
| 2026-05-04 13:55 | 51.12601 | 2.09140 | 35013 ft | 457 kts | 99° |
| 2026-05-04 13:56 | 51.12064 | 2.19146 | 35012 ft | 456 kts | 99° |
| 2026-05-04 13:57 | 51.11236 | 2.34250 | 35005 ft | 456 kts | 99° |
| 2026-05-04 13:58 | 51.10102 | 2.54386 | 35007 ft | 457 kts | 99° |
| 2026-05-04 13:58 | 51.08746 | 2.69303 | 35005 ft | 450 kts | 110° |
| 2026-05-04 13:59 | 51.07009 | 2.78798 | 35002 ft | 450 kts | 111° |
| 2026-05-04 14:00 | 51.04408 | 2.93118 | 34992 ft | 450 kts | 111° |
| 2026-05-04 14:00 | 51.01783 | 3.07441 | 34997 ft | 450 kts | 111° |
| 2026-05-04 14:01 | 51.00021 | 3.16986 | 34991 ft | 450 kts | 111° |
| 2026-05-04 14:02 | 50.97363 | 3.31290 | 34957 ft | 450 kts | 111° |
| 2026-05-04 14:02 | 50.95582 | 3.40812 | 34964 ft | 450 kts | 111° |
| 2026-05-04 14:03 | 50.93794 | 3.50331 | 34966 ft | 450 kts | 111° |
| 2026-05-04 14:03 | 50.92008 | 3.59785 | 34959 ft | 451 kts | 111° |
| 2026-05-04 14:04 | 50.89279 | 3.74054 | 34969 ft | 451 kts | 112° |
| 2026-05-04 14:04 | 50.87437 | 3.83568 | 34958 ft | 452 kts | 112° |
| 2026-05-04 14:05 | 50.84661 | 3.97831 | 34973 ft | 453 kts | 112° |
| 2026-05-04 14:06 | 50.82811 | 4.07287 | 34982 ft | 453 kts | 112° |
| 2026-05-04 14:06 | 50.80936 | 4.16824 | 34991 ft | 454 kts | 112° |
| 2026-05-04 14:07 | 50.79058 | 4.26331 | 34986 ft | 451 kts | 112° |
| 2026-05-04 14:07 | 50.77179 | 4.35792 | 34991 ft | 451 kts | 112° |
| 2026-05-04 14:08 | 50.75292 | 4.45245 | 34990 ft | 451 kts | 112° |
| 2026-05-04 14:08 | 50.73412 | 4.54621 | 34987 ft | 451 kts | 112° |
| 2026-05-04 14:09 | 50.70605 | 4.68809 | 34967 ft | 452 kts | 112° |
| 2026-05-04 14:10 | 50.67857 | 4.83038 | 34983 ft | 453 kts | 112° |
| 2026-05-04 14:10 | 50.66001 | 4.92535 | 34987 ft | 453 kts | 112° |
| 2026-05-04 14:11 | 50.64070 | 5.02008 | 34992 ft | 453 kts | 113° |
| 2026-05-04 14:11 | 50.61147 | 5.16113 | 34970 ft | 453 kts | 113° |
| 2026-05-04 14:12 | 50.59192 | 5.25553 | 34970 ft | 454 kts | 113° |
| 2026-05-04 14:13 | 50.56227 | 5.39742 | 34986 ft | 456 kts | 114° |
| 2026-05-04 14:13 | 50.54242 | 5.49205 | 34990 ft | 456 kts | 114° |
| 2026-05-04 14:14 | 50.52248 | 5.58672 | 34969 ft | 456 kts | 114° |
| 2026-05-04 14:14 | 50.49433 | 5.72979 | 34983 ft | 458 kts | 111° |
| 2026-05-04 14:15 | 50.45879 | 5.92210 | 34771 ft | 458 kts | 111° |
| 2026-05-04 14:16 | 50.44082 | 6.01737 | 33455 ft | 460 kts | 112° |
| 2026-05-04 14:16 | 50.43161 | 6.06574 | 32371 ft | 466 kts | 111° |
| 2026-05-04 14:17 | 50.41269 | 6.16406 | 30310 ft | 473 kts | 111° |
| 2026-05-04 14:17 | 50.40282 | 6.21345 | 29222 ft | 475 kts | 112° |
| 2026-05-04 14:17 | 50.38401 | 6.31302 | 27060 ft | 478 kts | 109° |
| 2026-05-04 14:18 | 50.37453 | 6.36265 | 26387 ft | 470 kts | 110° |
| 2026-05-04 14:18 | 50.35660 | 6.45802 | 25583 ft | 445 kts | 110° |
| 2026-05-04 14:19 | 50.33936 | 6.54801 | 25064 ft | 419 kts | 111° |
| 2026-05-04 14:19 | 50.33089 | 6.59148 | 24984 ft | 420 kts | 111° |
| 2026-05-04 14:19 | 50.32235 | 6.63492 | 24984 ft | 424 kts | 111° |
| 2026-05-04 14:19 | 50.31359 | 6.67949 | 24991 ft | 423 kts | 111° |
| 2026-05-04 14:20 | 50.30506 | 6.72289 | 24964 ft | 423 kts | 111° |
| 2026-05-04 14:20 | 50.29640 | 6.76688 | 24747 ft | 422 kts | 111° |
| 2026-05-04 14:20 | 50.28773 | 6.81079 | 24307 ft | 423 kts | 111° |
| 2026-05-04 14:21 | 50.27010 | 6.89972 | 22513 ft | 432 kts | 110° |
| 2026-05-04 14:21 | 50.26123 | 6.94438 | 21776 ft | 429 kts | 110° |
| 2026-05-04 14:21 | 50.25244 | 6.98859 | 21045 ft | 421 kts | 110° |
| 2026-05-04 14:21 | 50.24378 | 7.03208 | 20082 ft | 415 kts | 110° |
| 2026-05-04 14:22 | 50.23811 | 7.06050 | 19485 ft | 411 kts | 110° |
| 2026-05-04 14:22 | 50.22691 | 7.11639 | 18653 ft | 401 kts | 110° |
| 2026-05-04 14:22 | 50.21860 | 7.15769 | 18039 ft | 397 kts | 110° |
| 2026-05-04 14:22 | 50.21305 | 7.18527 | 17703 ft | 391 kts | 110° |
| 2026-05-04 14:23 | 50.19697 | 7.26498 | 16644 ft | 379 kts | 110° |
| 2026-05-04 14:23 | 50.18919 | 7.30341 | 16130 ft | 374 kts | 110° |
| 2026-05-04 14:23 | 50.18138 | 7.34194 | 15618 ft | 369 kts | 110° |
| 2026-05-04 14:24 | 50.17365 | 7.37992 | 15109 ft | 365 kts | 111° |
| 2026-05-04 14:24 | 50.16601 | 7.41745 | 14602 ft | 361 kts | 110° |
| 2026-05-04 14:24 | 50.15844 | 7.45455 | 14109 ft | 357 kts | 110° |
| 2026-05-04 14:24 | 50.15093 | 7.49128 | 13587 ft | 354 kts | 110° |
| 2026-05-04 14:25 | 50.14350 | 7.52761 | 13087 ft | 349 kts | 111° |
| 2026-05-04 14:25 | 50.12888 | 7.59893 | 12126 ft | 341 kts | 111° |
| 2026-05-04 14:25 | 50.12167 | 7.63401 | 11665 ft | 338 kts | 111° |
| 2026-05-04 14:26 | 50.11402 | 7.66836 | 11219 ft | 332 kts | 117° |
| 2026-05-04 14:26 | 50.10361 | 7.70055 | 11047 ft | 337 kts | 124° |
| 2026-05-04 14:26 | 50.09054 | 7.73076 | 10998 ft | 335 kts | 129° |
| 2026-05-04 14:26 | 50.07722 | 7.76050 | 10997 ft | 334 kts | 128° |
| 2026-05-04 14:27 | 50.06422 | 7.78982 | 10986 ft | 333 kts | 128° |
| 2026-05-04 14:27 | 50.05101 | 7.81956 | 10992 ft | 333 kts | 128° |
| 2026-05-04 14:27 | 50.03793 | 7.84931 | 10879 ft | 334 kts | 126° |
| 2026-05-04 14:27 | 50.02675 | 7.88126 | 10637 ft | 337 kts | 120° |
| 2026-05-04 14:28 | 50.01681 | 7.91399 | 10464 ft | 331 kts | 117° |
| 2026-05-04 14:28 | 50.00968 | 7.94746 | 10345 ft | 322 kts | 104° |
| 2026-05-04 14:28 | 50.00816 | 7.98174 | 10231 ft | 314 kts | 90° |
| 2026-05-04 14:28 | 50.01127 | 8.01490 | 10099 ft | 307 kts | 81° |
| 2026-05-04 14:29 | 50.02411 | 8.07762 | 9610 ft | 297 kts | 73° |
| 2026-05-04 14:29 | 50.03915 | 8.13836 | 9349 ft | 300 kts | 72° |
| 2026-05-04 14:30 | 50.04654 | 8.16818 | 9212 ft | 299 kts | 72° |
| 2026-05-04 14:30 | 50.05398 | 8.19849 | 9086 ft | 300 kts | 72° |
| 2026-05-04 14:30 | 50.06865 | 8.25888 | 8978 ft | 295 kts | 72° |
| 2026-05-04 14:31 | 50.07585 | 8.28867 | 8981 ft | 294 kts | 72° |
| 2026-05-04 14:31 | 50.09028 | 8.34843 | 8981 ft | 295 kts | 72° |
| 2026-05-04 14:32 | 50.10467 | 8.40814 | 8980 ft | 295 kts | 72° |
| 2026-05-04 14:32 | 50.11187 | 8.43810 | 8969 ft | 296 kts | 72° |
| 2026-05-04 14:32 | 50.11906 | 8.46806 | 8970 ft | 294 kts | 72° |
| 2026-05-04 14:32 | 50.12624 | 8.49799 | 8967 ft | 296 kts | 72° |
| 2026-05-04 14:33 | 50.13337 | 8.52793 | 8966 ft | 293 kts | 72° |
| 2026-05-04 14:33 | 50.14052 | 8.55787 | 8967 ft | 295 kts | 72° |
| 2026-05-04 14:33 | 50.14766 | 8.58780 | 8968 ft | 295 kts | 72° |
| 2026-05-04 14:33 | 50.15471 | 8.61740 | 8968 ft | 294 kts | 72° |
| 2026-05-04 14:34 | 50.16185 | 8.64742 | 8963 ft | 295 kts | 72° |
| 2026-05-04 14:34 | 50.16895 | 8.67729 | 8967 ft | 293 kts | 72° |
| 2026-05-04 14:34 | 50.17604 | 8.70720 | 8970 ft | 295 kts | 72° |
| 2026-05-04 14:34 | 50.18318 | 8.73729 | 8850 ft | 296 kts | 72° |
| 2026-05-04 14:35 | 50.19033 | 8.76753 | 8424 ft | 298 kts | 72° |
| 2026-05-04 14:35 | 50.19750 | 8.79792 | 7908 ft | 297 kts | 71° |
| 2026-05-04 14:35 | 50.20455 | 8.82782 | 7404 ft | 291 kts | 71° |
| 2026-05-04 14:35 | 50.21147 | 8.85721 | 6916 ft | 286 kts | 71° |
| 2026-05-04 14:36 | 50.21754 | 8.88640 | 6429 ft | 280 kts | 83° |
| 2026-05-04 14:36 | 50.21635 | 8.91596 | 5951 ft | 269 kts | 111° |
| 2026-05-04 14:36 | 50.20691 | 8.93989 | 5570 ft | 254 kts | 141° |
| 2026-05-04 14:36 | 50.19209 | 8.95276 | 5207 ft | 239 kts | 172° |
| 2026-05-04 14:37 | 50.17637 | 8.95153 | 5033 ft | 220 kts | 204° |
| 2026-05-04 14:37 | 50.16447 | 8.93894 | 4975 ft | 202 kts | 223° |
| 2026-05-04 14:37 | 50.15444 | 8.92492 | 4975 ft | 185 kts | 224° |
| 2026-05-04 14:37 | 50.14464 | 8.91121 | 4970 ft | 191 kts | 224° |
| 2026-05-04 14:38 | 50.13536 | 8.89632 | 4981 ft | 194 kts | 234° |
| 2026-05-04 14:38 | 50.12865 | 8.87875 | 4992 ft | 182 kts | 245° |
| 2026-05-04 14:38 | 50.12375 | 8.86058 | 4928 ft | 184 kts | 250° |
| 2026-05-04 14:38 | 50.11939 | 8.84213 | 4730 ft | 179 kts | 250° |
| 2026-05-04 14:39 | 50.11501 | 8.82376 | 4477 ft | 184 kts | 250° |
| 2026-05-04 14:39 | 50.11058 | 8.80516 | 4209 ft | 178 kts | 250° |
| 2026-05-04 14:39 | 50.10632 | 8.78729 | 3953 ft | 179 kts | 250° |
| 2026-05-04 14:40 | 50.09763 | 8.75082 | 3459 ft | 178 kts | 251° |
| 2026-05-04 14:40 | 50.09330 | 8.73264 | 3205 ft | 180 kts | 250° |
| 2026-05-04 14:40 | 50.08894 | 8.71455 | 2941 ft | 177 kts | 251° |
| 2026-05-04 14:40 | 50.08469 | 8.69682 | 2692 ft | 177 kts | 252° |
| 2026-05-04 14:41 | 50.08044 | 8.67878 | 2430 ft | 174 kts | 251° |
| 2026-05-04 14:41 | 50.07628 | 8.66128 | 2187 ft | 174 kts | 251° |
| 2026-05-04 14:41 | 50.06781 | 8.62576 | 1690 ft | 163 kts | 249° |
| 2026-05-04 14:42 | 50.06085 | 8.59665 | 1280 ft | 125 kts | 251° |
| 2026-05-04 14:42 | 50.05787 | 8.58412 | 1099 ft | 124 kts | 250° |
| 2026-05-04 14:42 | 50.05475 | 8.57103 | 921 ft | 133 kts | 249° |
| 2026-05-04 14:43 | 50.05159 | 8.55786 | 738 ft | 128 kts | 248° |
| 2026-05-04 14:43 | 50.04845 | 8.54464 | 578 ft | 134 kts | 247° |
| 2026-05-04 14:43 | 50.04530 | 8.53125 | 372 ft | 126 kts | 246° |
| 2026-05-04 14:43 | 50.04251 | 8.51990 | 353 ft | 88 kts | 250° |
| 2026-05-04 14:44 | 50.04106 | 8.51387 | 348 ft | 35 kts | 247° |
| 2026-05-04 14:44 | 50.04010 | 8.51077 | 350 ft | 30 kts | 230° |
| 2026-05-04 14:44 | 50.03902 | 8.50919 | 354 ft | 17 kts | 218° |
| 2026-05-04 14:44 | 50.03815 | 8.50838 | 345 ft | 14 kts | 180° |
| 2026-05-04 14:45 | 50.03799 | 8.50933 | 351 ft | 9 kts | 34° |
| 2026-05-04 14:45 | 50.03812 | 8.51037 | 345 ft | 12 kts | 84° |
| 2026-05-04 14:45 | 50.03842 | 8.51174 | 350 ft | 15 kts | 69° |
| 2026-05-04 14:45 | 50.03879 | 8.51345 | 350 ft | 18 kts | 71° |
| 2026-05-04 14:46 | 50.03923 | 8.51549 | 348 ft | 21 kts | 72° |
| 2026-05-04 14:46 | 50.03982 | 8.51772 | 348 ft | 24 kts | 68° |
| 2026-05-04 14:46 | 50.04044 | 8.52024 | 351 ft | 26 kts | 69° |
| 2026-05-04 14:46 | 50.04109 | 8.52302 | 348 ft | 28 kts | 70° |
| 2026-05-04 14:47 | 50.04178 | 8.52601 | 350 ft | 30 kts | 68° |
| 2026-05-04 14:47 | 50.04253 | 8.52897 | 351 ft | 30 kts | 69° |
| 2026-05-04 14:47 | 50.04323 | 8.53188 | 352 ft | 26 kts | 68° |
| 2026-05-04 14:47 | 50.04391 | 8.53462 | 352 ft | 28 kts | 72° |
| 2026-05-04 14:48 | 50.04414 | 8.53774 | 348 ft | 30 kts | 84° |
| 2026-05-04 14:48 | 50.04435 | 8.54106 | 345 ft | 32 kts | 84° |
| 2026-05-04 14:48 | 50.04453 | 8.54439 | 345 ft | 27 kts | 87° |
| 2026-05-04 14:48 | 50.04405 | 8.54653 | 353 ft | 22 kts | 128° |
| 2026-05-04 14:49 | 50.04298 | 8.54779 | 347 ft | 18 kts | 158° |
| 2026-05-04 14:49 | 50.04188 | 8.54844 | 353 ft | 17 kts | 160° |
| 2026-05-04 14:49 | 50.04072 | 8.54909 | 351 ft | 17 kts | 160° |
| 2026-05-04 14:49 | 50.04027 | 8.55050 | 351 ft | 18 kts | 70° |
| 2026-05-04 14:50 | 50.04074 | 8.55249 | 352 ft | 21 kts | 69° |
| 2026-05-04 14:50 | 50.04129 | 8.55477 | 350 ft | 24 kts | 70° |
| 2026-05-04 14:50 | 50.04188 | 8.55730 | 353 ft | 26 kts | 70° |
| 2026-05-04 14:50 | 50.04253 | 8.55995 | 350 ft | 25 kts | 68° |
| 2026-05-04 14:51 | 50.04315 | 8.56261 | 352 ft | 27 kts | 70° |
| 2026-05-04 14:51 | 50.04382 | 8.56529 | 350 ft | 23 kts | 68° |
| 2026-05-04 14:51 | 50.04428 | 8.56727 | 354 ft | 14 kts | 71° |
| 2026-05-04 14:51 | 50.04463 | 8.56848 | 353 ft | 14 kts | 42° |
| 2026-05-04 14:52 | 50.04565 | 8.56895 | 345 ft | 17 kts | 12° |
| 2026-05-04 14:52 | 50.04660 | 8.56938 | 352 ft | 13 kts | 24° |
| 2026-05-04 14:52 | 50.04753 | 8.57005 | 353 ft | 12 kts | 24° |
| 2026-05-04 14:52 | 50.04770 | 8.57072 | 345 ft | 8 kts | 116° |
| 2026-05-04 14:53 | 50.04752 | 8.57125 | 351 ft | 4 kts | 120° |
| 2026-05-04 14:53 | 50.04749 | 8.57133 | 348 ft | 0 kts | 120° |